Aviation Digital Data Service (ADDS)

Output produced by METARs form (0046 UTC 17 July 2019)
found at http://www.aviationweather.gov/metar/data/
 
DTTA 170030Z 26007KT 9999 FEW026 23/18 Q1015
TAF DTTA 162300Z 1700/1724 28006KT 9999 SCT026 
     BECMG 1710/1712 04016KT
       
DTTR 162300Z AUTO 06010KT NCD 30/16 Q1014
TAF DTTR 170000Z 1701/1710 34010KT CAVOK 
     PROB30 
     TEMPO 1702/1704 09015G25KT
       
DTTG 170000Z 08010KT 8000 NSC 26/17 Q1015 NOSIG
TAF DTTG 170000Z 1701/1710 05010KT 8000 NSC
       
DTTF 170000Z 06013KT CAVOK 25/11 Q1014 NOSIG
TAF DTTF 170000Z 1701/1710 06017KT 9999 FEW026
       
DTMB 170030Z 31012KT CAVOK 25/21 Q1014
TAF DTMB 162300Z 1700/1724 35013KT 9999 SCT020
       
DTTZ 170000Z 09012KT CAVOK 30/13 Q1014 NOSIG
TAF DTTZ 162300Z 1700/1724 05015KT 9999 SCT030 
     BECMG 1715/1717 20005KT
       
DTTD 170000Z AUTO 10007KT 060V140 NCD 25/17 Q1016
DTTB 162300Z 24005KT 9999 SCT020 21/18 Q1016
TAF DTTB 170000Z 1701/1710 29005KT 9999 SCT020
       
DTKA 170000Z AUTO 22004KT NCD 22/20 Q1016
TAF DTKA 170000Z 1701/1710 29006KT 9999 BKN020
       
DTTX 170000Z 32005KT 290V350 9999 FEW020 25/15 Q1014
TAF DTTX 162300Z 1700/1724 36010KT 9999 FEW020 
     BECMG 1710/1712 14014KT
       
DTTJ 170030Z 02014KT 8000 NSC 27/16 Q1014 NOSIG
TAF DTTJ 162300Z 1700/1724 02019KT 9999 FEW023 
     BECMG 1700/1702 04009KT